Time;durP1;ratioP1;P1;durP2;ratioP2;P2;SDS_P1;SDS_P2;PMS_P1;PMS_P2;Temp;Humidity;BMP_temperature;BMP_pressure;BME280_temperature;BME280_humidity;BME280_pressure;Samples;Min_cycle;Max_cycle;Signal;HPM_P1;HPM_P2
2022/11/11 00:02:04;;;;;;;83.32;43.38;;;11.00;99.90;;;;;;5115696;28;20046;-72
2022/11/11 00:04:48;;;;;;;81.47;40.88;;;11.00;99.90;;;;;;5115834;28;20046;-72
2022/11/11 00:07:33;;;;;;;87.60;40.88;;;11.00;99.90;;;;;;5107295;28;20050;-72
2022/11/11 00:10:18;;;;;;;78.53;40.28;;;11.00;99.90;;;;;;5095178;28;20054;-72
2022/11/11 00:13:04;;;;;;;71.95;39.60;;;10.90;99.90;;;;;;5079415;28;20097;-72
2022/11/11 00:15:49;;;;;;;75.13;38.95;;;10.90;99.90;;;;;;5095059;28;20405;-72
2022/11/11 00:27:28;;;;;;;70.65;39.40;;;10.90;99.90;;;;;;5095074;28;20042;-72
2022/11/11 00:30:13;;;;;;;67.93;40.08;;;10.80;99.90;;;;;;5094824;28;20035;-72
2022/11/11 00:32:57;;;;;;;70.65;39.85;;;10.80;99.90;;;;;;5094563;28;20467;-72
2022/11/11 00:35:54;;;;;;;66.40;36.85;;;10.80;99.90;;;;;;5094874;28;20097;-72
2022/11/11 00:38:46;;;;;;;62.95;33.45;;;10.80;99.90;;;;;;5095091;28;20098;-72
2022/11/11 00:41:30;;;;;;;68.07;36.42;;;10.80;99.90;;;;;;5094824;28;20038;-72
2022/11/11 00:44:15;;;;;;;65.20;35.35;;;10.80;99.90;;;;;;5094713;28;20218;-72
2022/11/11 00:53:23;;;;;;;74.35;41.38;;;10.80;99.90;;;;;;5094572;28;20094;-72
2022/11/11 00:56:08;;;;;;;63.00;34.25;;;10.70;99.90;;;;;;5094788;28;20051;-72
2022/11/11 00:58:52;;;;;;;57.75;32.83;;;10.70;99.90;;;;;;5106596;28;20046;-71
2022/11/11 01:01:37;;;;;;;56.80;34.10;;;10.50;99.90;;;;;;5114855;28;20042;-72
2022/11/11 01:04:22;;;;;;;60.58;36.13;;;10.50;99.90;;;;;;5114699;28;20055;-72
2022/11/11 01:07:07;;;;;;;73.45;37.97;;;10.40;99.90;;;;;;5114725;28;20038;-72
2022/11/11 01:09:51;;;;;;;65.60;37.65;;;10.40;99.90;;;;;;5114692;28;20401;-72
2022/11/11 01:12:36;;;;;;;68.38;37.88;;;10.30;99.90;;;;;;5114991;28;20046;-71
2022/11/11 01:15:20;;;;;;;64.97;36.67;;;10.10;99.90;;;;;;5115015;28;20130;-71
2022/11/11 01:18:06;;;;;;;59.72;33.95;;;10.00;99.90;;;;;;5114653;28;20511;-71
2022/11/11 01:21:03;;;;;;;62.13;35.67;;;9.90;99.90;;;;;;5114717;28;20072;-71
2022/11/11 01:23:48;;;;;;;63.05;35.10;;;9.80;99.90;;;;;;5114821;28;20068;-72
2022/11/11 01:26:33;;;;;;;69.93;39.53;;;9.70;99.90;;;;;;5118828;28;20050;-72
2022/11/11 01:29:18;;;;;;;64.60;35.85;;;9.80;99.90;;;;;;5118663;28;20062;-71
2022/11/11 01:32:03;;;;;;;73.97;36.90;;;9.70;99.90;;;;;;5118534;28;20046;-71
2022/11/11 01:34:47;;;;;;;82.53;43.72;;;9.80;99.90;;;;;;5118299;28;20119;-71
2022/11/11 01:37:32;;;;;;;71.43;41.80;;;9.80;99.90;;;;;;5118445;28;20050;-71
2022/11/11 01:40:17;;;;;;;60.15;36.03;;;9.70;99.90;;;;;;5118329;28;20554;-72
2022/11/11 01:43:05;;;;;;;71.35;38.88;;;9.80;99.90;;;;;;5118525;28;20535;-72
2022/11/11 01:45:59;;;;;;;67.45;40.55;;;9.70;99.90;;;;;;5118042;28;20400;-72
2022/11/11 01:51:56;;;;;;;73.15;41.50;;;9.70;99.90;;;;;;5118434;28;20054;-72
2022/11/11 01:54:43;;;;;;;71.47;40.20;;;9.80;99.90;;;;;;5118283;28;20042;-72
2022/11/11 01:57:58;;;;;;;79.25;43.78;;;9.90;99.90;;;;;;5117935;27;20035;-71
2022/11/11 02:00:42;;;;;;;86.90;44.55;;;9.90;99.90;;;;;;5117895;28;20066;-72
2022/11/11 02:03:31;;;;;;;61.85;37.67;;;9.80;99.90;;;;;;5102766;28;20516;-72
2022/11/11 02:06:16;;;;;;;60.33;36.42;;;9.80;99.90;;;;;;5102470;28;20074;-72
2022/11/11 02:09:02;;;;;;;62.17;38.72;;;9.90;99.90;;;;;;5077327;28;20043;-72
2022/11/11 02:14:53;;;;;;;67.60;37.53;;;9.90;99.90;;;;;;5076988;28;20117;-72
2022/11/11 02:17:38;;;;;;;61.13;35.17;;;10.00;99.90;;;;;;5077020;28;20042;-72
2022/11/11 02:20:28;;;;;;;58.42;36.08;;;10.00;99.90;;;;;;5077058;28;20075;-72
2022/11/11 02:23:30;;;;;;;59.03;35.40;;;10.00;99.90;;;;;;5077018;28;20094;-72
2022/11/11 02:26:16;;;;;;;55.47;34.92;;;10.00;99.90;;;;;;5076788;28;20276;-72
2022/11/11 02:29:04;;;;;;;57.38;35.10;;;10.10;99.90;;;;;;5075855;28;20095;-71
2022/11/11 02:31:48;;;;;;;53.80;33.60;;;10.00;99.90;;;;;;5076679;28;20095;-71
2022/11/11 02:34:33;;;;;;;64.30;33.95;;;10.00;99.90;;;;;;5076532;28;20034;-71
2022/11/11 02:37:24;;;;;;;57.70;33.70;;;9.90;99.90;;;;;;5076350;28;20046;-71
2022/11/11 02:40:12;;;;;;;49.65;31.02;;;9.80;99.90;;;;;;5076807;28;20058;-72
2022/11/11 02:42:57;;;;;;;46.45;29.33;;;9.90;99.90;;;;;;5076784;28;20052;-72
2022/11/11 02:45:41;;;;;;;48.45;30.85;;;10.10;99.90;;;;;;5076401;28;20563;-72
2022/11/11 02:48:27;;;;;;;48.33;30.00;;;10.00;99.90;;;;;;5076204;28;20035;-71
2022/11/11 02:51:11;;;;;;;66.35;30.25;;;10.00;99.90;;;;;;5076192;28;20147;-72
2022/11/11 02:54:01;;;;;;;52.40;29.92;;;9.90;99.90;;;;;;5075239;28;20585;-72
2022/11/11 02:59:49;;;;;;;45.85;28.25;;;9.80;99.90;;;;;;5075948;28;20083;-72
2022/11/11 03:02:34;;;;;;;49.28;28.58;;;9.80;99.90;;;;;;5076078;28;20035;-71
2022/11/11 03:05:18;;;;;;;45.72;28.70;;;9.80;99.90;;;;;;5075983;28;20110;-71
2022/11/11 03:08:03;;;;;;;44.78;27.27;;;9.80;99.90;;;;;;5100907;28;20051;-72
2022/11/11 03:10:47;;;;;;;53.85;28.27;;;9.70;99.90;;;;;;5116708;28;20100;-71
2022/11/11 03:13:32;;;;;;;63.22;30.73;;;9.80;99.90;;;;;;5116342;28;20061;-71
2022/11/11 03:19:30;;;;;;;43.90;28.00;;;9.50;99.90;;;;;;5084116;28;20107;-71
2022/11/11 03:22:15;;;;;;;44.40;27.70;;;9.50;99.90;;;;;;5116228;28;20085;-71
2022/11/11 03:28:07;;;;;;;50.22;28.08;;;9.60;99.90;;;;;;5116213;28;20095;-71
2022/11/11 03:30:52;;;;;;;53.00;28.90;;;9.50;99.90;;;;;;5116437;28;20118;-71
2022/11/11 03:33:37;;;;;;;53.03;30.13;;;9.40;99.90;;;;;;5115993;28;20043;-72
2022/11/11 03:38:14;;;;;;;66.22;30.40;;;9.40;99.90;;;;;;5116387;28;20046;-71
2022/11/11 03:39:26;;;;;;;70.75;29.13;;;9.40;99.90;;;;;;5116116;28;20039;-71
2022/11/11 03:42:11;;;;;;;66.13;30.73;;;9.30;99.90;;;;;;5116337;28;20130;-72
2022/11/11 03:44:55;;;;;;;187.02;36.95;;;9.40;99.90;;;;;;5116169;28;20123;-71
2022/11/11 03:47:40;;;;;;;70.15;30.58;;;9.40;99.90;;;;;;5115511;28;20134;-71
2022/11/11 03:50:25;;;;;;;77.50;30.38;;;9.40;99.90;;;;;;5116022;28;20357;-72
2022/11/11 03:53:09;;;;;;;148.00;32.10;;;9.50;99.90;;;;;;5115937;28;20042;-71
2022/11/11 03:55:54;;;;;;;284.13;36.08;;;9.50;99.90;;;;;;5115758;28;20125;-71
2022/11/11 03:58:39;;;;;;;142.27;33.42;;;9.50;99.90;;;;;;5099790;28;20519;-71
2022/11/11 04:10:32;;;;;;;147.35;33.75;;;9.50;99.90;;;;;;5095033;28;20066;-72
2022/11/11 04:16:20;;;;;;;102.85;31.25;;;9.40;99.90;;;;;;5102497;28;20039;-71
2022/11/11 04:22:09;;;;;;;54.47;31.15;;;9.20;99.90;;;;;;5094646;28;20055;-72
2022/11/11 04:31:00;;;;;;;104.82;34.45;;;9.00;99.90;;;;;;5115707;28;20095;-72
2022/11/11 04:33:45;;;;;;;77.25;29.60;;;9.00;99.90;;;;;;5099761;28;20063;-72
2022/11/11 04:36:29;;;;;;;154.70;32.97;;;9.10;99.90;;;;;;5094741;28;20085;-71
2022/11/11 04:42:17;;;;;;;74.68;30.48;;;9.00;99.90;;;;;;5094619;28;20082;-72
2022/11/11 04:48:08;;;;;;;86.13;30.90;;;9.10;99.90;;;;;;5094648;28;20047;-72
2022/11/11 04:50:52;;;;;;;137.93;34.10;;;9.20;99.90;;;;;;5094609;28;20500;-72
2022/11/11 04:53:37;;;;;;;66.05;31.42;;;9.20;99.90;;;;;;5094499;28;20054;-72
2022/11/11 04:59:25;;;;;;;79.95;31.25;;;9.20;99.90;;;;;;5111381;28;20791;-71
2022/11/11 05:05:13;;;;;;;130.00;34.10;;;9.30;99.90;;;;;;5118937;28;20067;-72
2022/11/11 05:11:00;;;;;;;62.45;28.63;;;9.30;99.90;;;;;;5078072;28;20086;-72
2022/11/11 05:22:59;;;;;;;118.30;32.03;;;9.10;99.90;;;;;;5077873;28;20043;-72
2022/11/11 05:25:44;;;;;;;121.40;31.23;;;8.90;99.90;;;;;;5077839;28;20122;-72
2022/11/11 05:28:28;;;;;;;73.90;30.00;;;8.80;99.90;;;;;;5077796;28;20074;-72
2022/11/11 05:31:13;;;;;;;205.90;37.70;;;8.70;99.90;;;;;;5077730;28;20099;-72
2022/11/11 05:33:58;;;;;;;73.97;33.53;;;8.70;99.90;;;;;;5077484;28;20106;-71
2022/11/11 05:36:42;;;;;;;61.67;32.00;;;8.70;99.90;;;;;;5078030;28;20544;-72
2022/11/11 05:39:27;;;;;;;53.30;29.70;;;8.80;99.90;;;;;;5077453;28;20206;-72
2022/11/11 05:42:12;;;;;;;59.92;31.67;;;8.90;99.90;;;;;;5077762;28;20090;-72
2022/11/11 05:44:57;;;;;;;68.18;32.45;;;9.00;99.90;;;;;;5077419;28;20039;-72
2022/11/11 05:47:41;;;;;;;56.53;31.85;;;8.90;99.90;;;;;;5077156;28;20039;-72
2022/11/11 05:50:26;;;;;;;101.40;32.63;;;8.90;99.90;;;;;;5077640;28;20059;-72
2022/11/11 05:53:10;;;;;;;82.60;30.95;;;8.90;99.90;;;;;;5077367;28;20413;-72
2022/11/11 05:55:55;;;;;;;72.97;27.60;;;8.90;99.90;;;;;;5077278;28;20091;-72
2022/11/11 05:58:40;;;;;;;81.28;29.33;;;8.90;99.90;;;;;;5087283;28;20102;-72
2022/11/11 06:01:24;;;;;;;86.95;30.15;;;8.90;99.90;;;;;;5097274;28;20226;-72
2022/11/11 06:04:09;;;;;;;87.13;28.88;;;8.80;99.90;;;;;;5097670;28;20086;-72
2022/11/11 06:06:54;;;;;;;213.00;34.10;;;8.80;99.90;;;;;;5097866;28;20043;-72
2022/11/11 06:09:39;;;;;;;62.92;30.67;;;8.80;99.90;;;;;;5116846;27;20117;-72
2022/11/11 06:12:23;;;;;;;86.57;36.83;;;8.80;99.90;;;;;;5137849;27;20042;-72
2022/11/11 06:15:09;;;;;;;100.88;34.20;;;8.90;99.90;;;;;;5138979;27;20038;-72
2022/11/11 06:17:54;;;;;;;150.43;44.58;;;9.00;99.90;;;;;;5138564;27;20042;-71
2022/11/11 06:20:38;;;;;;;115.07;50.17;;;9.00;99.90;;;;;;5138823;27;20086;-72
2022/11/11 06:23:24;;;;;;;70.65;34.45;;;9.10;99.90;;;;;;5138758;27;20050;-72
2022/11/11 06:26:15;;;;;;;92.93;35.47;;;9.30;99.90;;;;;;5138036;27;20099;-72
2022/11/11 06:29:02;;;;;;;81.93;35.67;;;9.30;99.90;;;;;;5138197;27;20041;-72
2022/11/11 06:31:47;;;;;;;80.28;39.45;;;9.40;99.90;;;;;;5112266;27;20499;-72
2022/11/11 06:34:31;;;;;;;102.07;46.38;;;9.50;99.90;;;;;;5116819;27;20047;-72
2022/11/11 06:37:16;;;;;;;86.30;41.53;;;9.50;99.90;;;;;;5083861;28;20051;-72
2022/11/11 06:40:00;;;;;;;83.97;37.47;;;9.50;99.90;;;;;;5107677;28;20055;-72
2022/11/11 06:42:46;;;;;;;127.75;47.95;;;9.40;99.90;;;;;;5096397;28;20094;-72
2022/11/11 06:45:32;;;;;;;142.05;46.92;;;9.30;99.90;;;;;;5083133;28;20047;-72
2022/11/11 06:48:16;;;;;;;97.82;41.75;;;9.20;99.90;;;;;;5107849;28;20047;-72
2022/11/11 06:51:04;;;;;;;87.22;40.30;;;9.40;99.90;;;;;;5100855;28;20212;-72
2022/11/11 06:53:49;;;;;;;85.53;38.13;;;9.50;99.90;;;;;;5096435;27;20042;-72
2022/11/11 06:56:37;;;;;;;73.95;33.92;;;9.40;99.90;;;;;;5108786;27;20093;-72
2022/11/11 06:59:37;;;;;;;92.60;40.15;;;9.40;99.90;;;;;;5110930;28;20050;-72
2022/11/11 07:02:21;;;;;;;72.53;34.35;;;9.50;99.90;;;;;;5111940;28;20055;-72
2022/11/11 07:05:06;;;;;;;78.68;36.95;;;9.60;99.90;;;;;;5116468;28;20046;-72
2022/11/11 07:07:50;;;;;;;81.57;36.60;;;9.70;99.90;;;;;;5115978;28;20095;-72
2022/11/11 07:10:38;;;;;;;86.53;38.17;;;9.80;99.90;;;;;;5115612;28;20439;-72
2022/11/11 07:13:23;;;;;;;83.75;37.30;;;9.70;99.90;;;;;;5109063;28;20063;-72
2022/11/11 07:16:11;;;;;;;93.55;41.67;;;9.90;99.90;;;;;;5111072;28;20500;-72
2022/11/11 07:18:55;;;;;;;93.55;41.40;;;10.00;99.90;;;;;;5114539;28;20074;-72
2022/11/11 07:21:39;;;;;;;89.70;40.65;;;9.80;99.90;;;;;;5096959;28;20135;-72
2022/11/11 07:24:24;;;;;;;110.00;45.45;;;9.90;99.90;;;;;;5108458;27;20038;-72
2022/11/11 07:27:09;;;;;;;127.85;48.00;;;9.80;99.90;;;;;;5112955;28;20438;-72
2022/11/11 07:29:54;;;;;;;110.20;45.08;;;9.70;99.90;;;;;;5114823;28;20527;-73
2022/11/11 07:33:07;;;;;;;128.18;44.83;;;9.40;99.90;;;;;;5094539;28;20046;-73
2022/11/11 07:35:52;;;;;;;106.35;44.95;;;9.50;99.90;;;;;;5107336;28;20046;-73
2022/11/11 07:38:36;;;;;;;91.13;40.30;;;9.70;99.90;;;;;;5111075;28;20092;-72
2022/11/11 07:41:21;;;;;;;89.82;40.88;;;9.80;99.90;;;;;;5109753;28;20039;-72
2022/11/11 07:44:06;;;;;;;96.15;40.53;;;9.90;99.90;;;;;;5111211;28;20042;-72
2022/11/11 07:46:50;;;;;;;100.53;39.10;;;9.90;99.90;;;;;;5095402;28;20540;-73
2022/11/11 07:49:35;;;;;;;111.30;42.53;;;9.70;99.90;;;;;;5103239;28;20074;-72
2022/11/11 07:52:22;;;;;;;96.82;41.90;;;10.00;99.90;;;;;;5083514;28;20051;-72
2022/11/11 07:55:07;;;;;;;116.30;40.85;;;9.90;99.90;;;;;;5094852;28;20055;-72
2022/11/11 07:57:52;;;;;;;104.22;40.67;;;10.10;99.90;;;;;;5094721;28;20143;-72
2022/11/11 08:00:37;;;;;;;119.13;43.97;;;10.10;99.90;;;;;;5110629;28;20029;-72
2022/11/11 08:03:21;;;;;;;127.53;45.78;;;10.20;99.90;;;;;;5110469;28;20146;-73
2022/11/11 08:06:06;;;;;;;120.20;41.58;;;10.30;99.90;;;;;;5104110;28;20114;-73
2022/11/11 08:08:50;;;;;;;134.52;43.90;;;10.20;99.90;;;;;;5110551;28;20089;-73
2022/11/11 08:14:58;;;;;;;294.10;70.30;;;10.40;99.90;;;;;;5032793;28;20043;-73
2022/11/11 08:17:43;;;;;;;284.20;67.93;;;10.50;99.90;;;;;;5032559;28;20103;-73
2022/11/11 08:20:27;;;;;;;305.38;72.63;;;10.40;99.90;;;;;;5048900;28;20068;-73
2022/11/11 08:23:15;;;;;;;261.65;65.72;;;10.40;99.90;;;;;;5032744;28;20505;-73
2022/11/11 08:26:06;;;;;;;261.83;64.13;;;10.40;99.90;;;;;;5032732;28;20084;-74
2022/11/11 08:28:52;;;;;;;305.70;68.15;;;10.50;99.90;;;;;;5042273;28;20521;-73
2022/11/11 08:31:38;;;;;;;341.88;81.63;;;10.50;99.90;;;;;;5049787;28;20079;-73
2022/11/11 08:34:22;;;;;;;339.48;81.03;;;10.50;99.90;;;;;;5048251;28;20509;-73
2022/11/11 08:37:07;;;;;;;371.95;85.45;;;10.40;99.90;;;;;;5049012;28;20166;-73
2022/11/11 08:39:51;;;;;;;372.83;90.28;;;10.50;99.90;;;;;;5050191;28;20096;-73
2022/11/11 08:42:36;;;;;;;391.20;86.47;;;10.50;99.90;;;;;;5050179;28;20510;-73
2022/11/11 08:45:20;;;;;;;376.10;90.63;;;10.60;99.90;;;;;;5075324;28;20089;-73
2022/11/11 08:48:08;;;;;;;331.23;84.57;;;10.60;99.90;;;;;;5101401;28;20043;-73
2022/11/11 08:50:53;;;;;;;357.02;87.82;;;10.60;99.90;;;;;;5100135;28;20093;-73
2022/11/11 08:53:38;;;;;;;366.35;90.93;;;10.60;99.90;;;;;;5105291;28;20438;-73
2022/11/11 08:56:23;;;;;;;377.23;93.53;;;10.60;99.90;;;;;;5102620;28;20043;-73
2022/11/11 08:59:08;;;;;;;404.17;92.97;;;10.60;99.90;;;;;;5103915;28;20557;-73
2022/11/11 09:01:53;;;;;;;434.08;101.97;;;10.60;99.90;;;;;;5102462;28;20512;-73
2022/11/11 09:04:41;;;;;;;395.63;99.75;;;10.60;99.90;;;;;;5096029;28;20464;-73
2022/11/11 09:07:26;;;;;;;390.08;99.40;;;10.60;99.90;;;;;;5104986;28;20101;-73
2022/11/11 09:10:11;;;;;;;450.25;111.65;;;10.70;99.90;;;;;;5099722;28;20089;-73
2022/11/11 09:12:57;;;;;;;476.02;119.50;;;10.70;99.90;;;;;;5112699;28;20176;-73
2022/11/11 09:15:41;;;;;;;490.85;125.28;;;10.60;99.90;;;;;;5114528;28;20054;-73
2022/11/11 09:18:26;;;;;;;515.13;123.18;;;10.60;99.90;;;;;;5113703;28;20511;-73
2022/11/11 09:21:11;;;;;;;512.22;122.97;;;10.50;99.90;;;;;;5112565;28;20092;-73
2022/11/11 09:23:55;;;;;;;489.83;120.85;;;10.50;99.90;;;;;;5113530;28;20484;-74
2022/11/11 09:26:40;;;;;;;446.85;111.68;;;10.50;99.90;;;;;;5102093;28;20754;-74
2022/11/11 09:29:25;;;;;;;397.83;103.00;;;10.60;99.90;;;;;;5103176;28;20034;-73
2022/11/11 09:32:09;;;;;;;425.85;106.80;;;10.50;99.90;;;;;;5109534;28;20409;-74
2022/11/11 09:34:54;;;;;;;478.20;114.45;;;10.60;99.90;;;;;;5111480;28;20508;-73
2022/11/11 09:37:39;;;;;;;412.05;106.55;;;10.60;99.90;;;;;;5114406;28;20034;-73
2022/11/11 09:40:26;;;;;;;394.08;101.72;;;10.70;99.90;;;;;;5118925;28;20062;-74
2022/11/11 09:43:34;;;;;;;370.98;101.72;;;10.60;99.90;;;;;;5118969;28;20551;-74
2022/11/11 09:46:43;;;;;;;376.65;100.15;;;10.70;99.90;;;;;;5097980;27;20049;-74
2022/11/11 09:49:44;;;;;;;387.90;98.45;;;10.80;99.90;;;;;;5102819;28;20050;-74
2022/11/11 09:52:36;;;;;;;377.25;96.65;;;10.60;99.90;;;;;;5110625;28;20047;-73
2022/11/11 09:55:22;;;;;;;404.77;106.00;;;10.60;99.90;;;;;;5097688;28;20477;-74
2022/11/11 09:58:10;;;;;;;376.27;100.22;;;10.80;99.90;;;;;;5104283;28;20097;-74
2022/11/11 10:01:40;;;;;;;385.27;103.85;;;10.80;99.90;;;;;;5120019;27;20039;-74
2022/11/11 10:04:57;;;;;;;385.87;104.80;;;10.80;99.90;;;;;;5108651;28;20042;-74
2022/11/11 10:07:57;;;;;;;206.45;62.63;;;11.00;99.90;;;;;;5097532;28;20059;-74
2022/11/11 10:10:52;;;;;;;110.55;42.35;;;10.90;99.90;;;;;;5102014;28;20112;-74
2022/11/11 10:13:37;;;;;;;109.65;45.05;;;10.90;99.90;;;;;;5114522;28;20070;-75
2022/11/11 10:16:34;;;;;;;135.68;49.13;;;11.10;99.90;;;;;;5117324;28;20070;-74
2022/11/11 10:19:29;;;;;;;148.45;50.78;;;11.10;99.90;;;;;;5117565;28;20511;-74
2022/11/11 10:22:32;;;;;;;168.40;55.70;;;11.30;99.90;;;;;;5135045;27;20038;-74
2022/11/11 10:25:37;;;;;;;165.23;55.30;;;11.50;99.90;;;;;;5137600;27;20050;-74
2022/11/11 10:28:28;;;;;;;164.82;53.47;;;11.50;99.90;;;;;;5130149;27;20216;-74
2022/11/11 10:31:16;;;;;;;196.45;63.33;;;11.50;99.90;;;;;;5123681;27;20073;-74
2022/11/11 10:34:12;;;;;;;211.75;64.68;;;11.40;99.90;;;;;;5121459;27;20042;-75
2022/11/11 10:36:58;;;;;;;185.27;64.00;;;11.50;99.90;;;;;;5125476;27;20160;-74
2022/11/11 10:40:20;;;;;;;165.65;56.55;;;11.70;99.90;;;;;;5120849;27;20042;-75
2022/11/11 10:43:27;;;;;;;162.40;54.53;;;11.80;99.90;;;;;;5096204;28;20508;-74
2022/11/11 10:46:17;;;;;;;181.43;57.55;;;11.90;99.90;;;;;;5105890;28;20100;-74
2022/11/11 10:49:20;;;;;;;191.43;60.63;;;11.90;99.90;;;;;;5116677;28;20149;-75
2022/11/11 10:52:21;;;;;;;204.13;66.90;;;11.80;99.90;;;;;;5120921;27;20111;-74
2022/11/11 10:55:17;;;;;;;195.48;68.80;;;12.00;99.90;;;;;;5106048;28;20095;-74
2022/11/11 10:58:37;;;;;;;178.07;66.38;;;12.20;99.90;;;;;;5104494;28;20086;-74
2022/11/11 11:01:32;;;;;;;171.23;65.28;;;12.00;99.90;;;;;;5102584;28;20058;-74
2022/11/11 11:04:36;;;;;;;149.45;57.65;;;12.30;99.90;;;;;;5107623;28;20104;-74
2022/11/11 11:07:25;;;;;;;139.77;56.03;;;12.70;99.90;;;;;;5096149;28;20137;-74
2022/11/11 11:10:20;;;;;;;132.13;53.00;;;12.70;99.90;;;;;;5111772;28;20138;-74
2022/11/11 11:13:14;;;;;;;121.40;51.05;;;12.90;99.90;;;;;;5109424;28;20046;-74
2022/11/11 11:16:04;;;;;;;134.57;54.40;;;12.80;99.90;;;;;;5108160;28;20082;-74
2022/11/11 11:19:18;;;;;;;135.82;53.97;;;12.90;99.90;;;;;;5115526;28;20088;-75
2022/11/11 11:22:03;;;;;;;131.05;58.00;;;13.10;99.90;;;;;;5109910;28;20047;-77
2022/11/11 11:24:48;;;;;;;131.48;58.22;;;13.30;99.90;;;;;;5108784;28;20070;-74
2022/11/11 11:27:33;;;;;;;127.43;52.70;;;13.50;99.90;;;;;;5108990;28;20412;-73
2022/11/11 11:30:24;;;;;;;108.63;50.00;;;13.50;99.90;;;;;;5105391;28;20130;-74
2022/11/11 11:33:09;;;;;;;112.63;52.67;;;13.80;99.90;;;;;;5103989;28;20047;-73
2022/11/11 11:35:53;;;;;;;106.72;50.05;;;14.30;99.90;;;;;;5107120;28;20368;-73
2022/11/11 11:38:46;;;;;;;95.65;47.13;;;14.70;99.90;;;;;;5103423;28;20097;-76
2022/11/11 11:41:42;;;;;;;106.30;48.35;;;15.20;99.90;;;;;;5105870;28;20059;-76
2022/11/11 11:44:31;;;;;;;84.75;42.67;;;15.50;99.90;;;;;;5103426;28;20122;-76
2022/11/11 11:47:21;;;;;;;85.22;42.65;;;16.00;99.90;;;;;;5108783;28;20436;-76
2022/11/11 11:50:46;;;;;;;84.55;42.20;;;16.80;97.20;;;;;;5116358;28;20050;-74
2022/11/11 11:53:51;;;;;;;113.97;55.60;;;17.10;95.20;;;;;;5100903;28;20093;-74
2022/11/11 11:56:46;;;;;;;123.55;57.03;;;17.50;93.30;;;;;;5101197;28;20646;-74
2022/11/11 12:00:13;;;;;;;68.50;35.08;;;17.60;92.20;;;;;;5113536;28;20496;-74
2022/11/11 12:03:17;;;;;;;124.95;49.53;;;17.90;88.80;;;;;;5103207;28;20062;-75
2022/11/11 12:06:10;;;;;;;101.68;46.53;;;18.10;88.70;;;;;;5109282;27;20128;-75
2022/11/11 12:08:56;;;;;;;100.85;44.05;;;18.20;85.80;;;;;;5114969;27;20055;-75
2022/11/11 12:12:15;;;;;;;112.80;45.67;;;18.00;87.70;;;;;;5120058;27;20054;-75
2022/11/11 12:15:24;;;;;;;113.38;49.33;;;17.80;84.20;;;;;;5111589;28;20117;-75
2022/11/11 12:18:18;;;;;;;121.15;49.47;;;17.70;85.60;;;;;;5106623;28;20049;-75
2022/11/11 12:21:09;;;;;;;127.47;51.42;;;17.50;86.50;;;;;;5104845;28;20042;-75
2022/11/11 12:24:27;;;;;;;146.90;55.65;;;17.40;89.60;;;;;;5100675;28;20073;-75
2022/11/11 12:27:32;;;;;;;154.13;55.25;;;17.70;84.50;;;;;;5102468;28;20087;-76
2022/11/11 12:30:19;;;;;;;161.82;61.90;;;17.00;89.00;;;;;;5098353;28;20034;-75
2022/11/11 12:33:30;;;;;;;180.13;61.20;;;16.70;88.40;;;;;;5110526;28;20546;-75
2022/11/11 12:36:19;;;;;;;160.10;59.20;;;16.80;89.10;;;;;;5099964;28;20034;-75
2022/11/11 12:39:44;;;;;;;181.02;63.85;;;16.90;90.20;;;;;;5114816;28;20042;-75
2022/11/11 12:42:52;;;;;;;184.00;64.88;;;17.10;87.60;;;;;;5114887;28;20043;-75
2022/11/11 12:45:55;;;;;;;189.15;66.25;;;16.90;87.60;;;;;;5114982;28;20549;-75
2022/11/11 12:48:49;;;;;;;205.77;68.97;;;16.60;88.90;;;;;;5108226;28;20042;-75
2022/11/11 12:52:00;;;;;;;240.43;79.75;;;16.60;90.40;;;;;;5094709;28;20477;-75
2022/11/11 12:55:14;;;;;;;231.52;72.35;;;16.70;88.50;;;;;;5104858;28;20066;-75
2022/11/11 12:58:02;;;;;;;234.15;79.35;;;16.60;87.90;;;;;;5094065;28;20097;-74
2022/11/11 13:01:08;;;;;;;237.77;77.30;;;16.60;88.10;;;;;;5106646;28;20035;-75
2022/11/11 13:04:21;;;;;;;227.65;76.10;;;16.30;90.10;;;;;;5105501;28;20134;-75
2022/11/11 13:07:37;;;;;;;220.20;70.95;;;16.40;90.00;;;;;;5102135;28;20062;-75
2022/11/11 13:10:57;;;;;;;202.02;68.18;;;16.00;90.50;;;;;;5105194;28;20079;-75
2022/11/11 13:21:33;;;;;;;189.88;62.13;;;16.40;90.80;;;;;;5077667;28;20578;-75
2022/11/11 13:24:21;;;;;;;178.60;62.28;;;16.60;88.20;;;;;;5115632;27;20401;-75
2022/11/11 13:27:16;;;;;;;173.63;61.17;;;16.70;87.70;;;;;;5121908;27;20046;-75
2022/11/11 13:30:21;;;;;;;175.38;57.70;;;16.50;86.80;;;;;;5108656;28;20035;-75
2022/11/11 13:33:19;;;;;;;174.10;55.63;;;16.20;87.30;;;;;;5115215;28;20046;-75
2022/11/11 13:36:07;;;;;;;159.32;54.95;;;16.10;88.00;;;;;;5110138;28;20042;-75
2022/11/11 13:38:55;;;;;;;131.82;49.22;;;16.00;90.80;;;;;;5115341;28;20544;-75
2022/11/11 13:41:43;;;;;;;120.75;45.78;;;15.90;89.70;;;;;;5113291;28;20114;-75
2022/11/11 13:44:35;;;;;;;144.80;49.03;;;15.70;90.40;;;;;;5114421;28;20043;-75
2022/11/11 13:47:37;;;;;;;155.70;54.67;;;15.80;91.10;;;;;;5115258;28;20496;-75
2022/11/11 13:50:38;;;;;;;156.77;53.13;;;15.70;92.60;;;;;;5120777;27;20047;-75
2022/11/11 13:53:35;;;;;;;145.18;48.45;;;15.60;92.80;;;;;;5117388;27;20123;-75
2022/11/11 13:56:35;;;;;;;159.02;49.35;;;15.60;92.30;;;;;;5109000;28;20097;-75
2022/11/11 13:59:27;;;;;;;148.75;50.63;;;15.40;92.10;;;;;;5110246;27;20093;-75
2022/11/11 14:02:19;;;;;;;143.80;50.05;;;15.40;92.30;;;;;;5119054;27;20063;-75
2022/11/11 14:05:04;;;;;;;144.95;47.58;;;15.40;92.80;;;;;;5108630;27;20075;-75
2022/11/11 14:07:53;;;;;;;141.57;46.40;;;15.40;93.00;;;;;;5108528;28;20039;-75
2022/11/11 14:10:58;;;;;;;140.07;47.67;;;15.40;93.60;;;;;;5113400;28;20050;-75
2022/11/11 14:13:43;;;;;;;156.90;51.97;;;15.40;93.90;;;;;;5104226;28;20038;-75
2022/11/11 14:16:34;;;;;;;153.43;55.63;;;15.30;94.10;;;;;;5107360;28;20112;-75
2022/11/11 14:19:18;;;;;;;167.88;56.58;;;15.00;94.80;;;;;;5105331;28;20035;-75
2022/11/11 14:22:32;;;;;;;165.02;67.60;;;14.60;95.90;;;;;;5104364;28;20400;-75
2022/11/11 14:25:25;;;;;;;176.57;70.07;;;14.40;96.60;;;;;;5105671;27;20062;-75
2022/11/11 14:28:30;;;;;;;132.07;49.30;;;14.10;98.20;;;;;;5102808;28;20163;-75
2022/11/11 14:31:14;;;;;;;168.90;56.90;;;13.80;99.60;;;;;;5130761;27;20118;-75
2022/11/11 14:34:22;;;;;;;185.40;72.35;;;13.70;99.90;;;;;;5137068;27;20046;-75
2022/11/11 14:37:28;;;;;;;143.55;51.45;;;13.50;99.90;;;;;;5137276;27;20095;-75
2022/11/11 14:40:26;;;;;;;162.30;51.60;;;13.30;99.90;;;;;;5111992;28;20475;-74
2022/11/11 14:43:47;;;;;;;150.50;50.10;;;13.20;99.90;;;;;;5117520;28;20039;-74
2022/11/11 14:47:01;;;;;;;149.68;49.30;;;13.20;99.90;;;;;;5117074;28;20058;-74
2022/11/11 14:49:53;;;;;;;163.23;52.65;;;13.10;99.90;;;;;;5117492;28;20376;-74
2022/11/11 14:52:41;;;;;;;231.07;84.65;;;12.90;99.90;;;;;;5117184;28;20529;-74
2022/11/11 14:55:32;;;;;;;246.52;94.25;;;12.80;99.90;;;;;;5116471;28;20046;-74
2022/11/11 14:58:20;;;;;;;240.05;92.97;;;12.70;99.90;;;;;;5116847;28;20049;-74
2022/11/11 15:01:19;;;;;;;247.25;92.03;;;12.50;99.90;;;;;;5116809;28;20464;-74
2022/11/11 15:04:05;;;;;;;258.83;103.45;;;12.50;99.90;;;;;;5117011;28;20050;-74
2022/11/11 15:06:55;;;;;;;254.00;97.78;;;12.40;99.90;;;;;;5116683;28;20096;-74
2022/11/11 15:10:04;;;;;;;269.58;108.85;;;12.40;99.90;;;;;;5116562;28;20041;-74
2022/11/11 15:13:17;;;;;;;263.77;112.32;;;12.20;99.90;;;;;;5116297;28;20130;-74
2022/11/11 15:16:28;;;;;;;253.70;105.72;;;12.10;99.90;;;;;;5116525;28;20050;-74
2022/11/11 15:19:25;;;;;;;239.75;89.53;;;12.00;99.90;;;;;;5116422;28;20034;-74
2022/11/11 15:22:35;;;;;;;244.85;93.57;;;12.00;99.90;;;;;;5116712;28;20050;-74
2022/11/11 15:25:29;;;;;;;218.98;84.55;;;11.80;99.90;;;;;;5116275;28;20319;-74
2022/11/11 15:28:13;;;;;;;214.68;86.10;;;11.60;99.90;;;;;;5116583;28;20083;-74
2022/11/11 15:31:21;;;;;;;208.07;81.60;;;11.50;99.90;;;;;;5116312;28;20039;-74
2022/11/11 15:34:21;;;;;;;202.38;81.32;;;11.40;99.90;;;;;;5116130;28;20042;-74
2022/11/11 15:37:17;;;;;;;173.23;64.97;;;11.10;99.90;;;;;;5116223;28;20393;-74
2022/11/11 15:40:04;;;;;;;184.70;67.97;;;10.90;99.90;;;;;;5116161;28;20030;-73
2022/11/11 15:42:50;;;;;;;215.48;78.47;;;10.60;99.90;;;;;;5115727;28;20046;-74
2022/11/11 15:45:35;;;;;;;341.88;134.98;;;10.50;99.90;;;;;;5115973;28;20503;-73
2022/11/11 15:48:42;;;;;;;233.15;84.53;;;10.40;99.90;;;;;;5115867;28;20050;-73
2022/11/11 15:51:32;;;;;;;187.57;70.80;;;10.30;99.90;;;;;;5116188;28;20093;-73